Time;durP1;ratioP1;P1;durP2;ratioP2;P2;SDS_P1;SDS_P2;PMS_P1;PMS_P2;Temp;Humidity;BMP_temperature;BMP_pressure;BME280_temperature;BME280_humidity;BME280_pressure;Samples;Min_cycle;Max_cycle;Signal;HPM_P1;HPM_P2
2023/12/07 00:00:43;;;;;;;7.35;3.92;;;;;;;;;;5147862;28;20138;-63
2023/12/07 00:03:15;;;;;;;6.95;3.88;;;;;;;;;;5176741;28;20046;-64
2023/12/07 00:05:46;;;;;;;6.90;3.87;;;;;;;;;;5169437;28;20406;-62
2023/12/07 00:08:17;;;;;;;6.88;3.83;;;;;;;;;;5168822;28;20386;-63
2023/12/07 00:10:48;;;;;;;7.22;4.18;;;;;;;;;;5168812;28;20063;-63
2023/12/07 00:13:19;;;;;;;9.55;3.95;;;;;;;;;;5174604;28;20049;-63
2023/12/07 00:15:50;;;;;;;8.23;3.85;;;;;;;;;;5169474;28;20038;-63
2023/12/07 00:18:22;;;;;;;7.70;3.83;;;;;;;;;;5168925;28;20113;-63
2023/12/07 00:20:53;;;;;;;7.10;3.92;;;;;;;;;;5168892;28;20033;-63
2023/12/07 00:23:24;;;;;;;7.50;4.07;;;;;;;;;;5172277;28;20061;-64
2023/12/07 00:25:55;;;;;;;8.90;4.45;;;;;;;;;;5186254;28;20045;-65
2023/12/07 00:28:26;;;;;;;9.50;4.28;;;;;;;;;;5173451;28;20579;-64
2023/12/07 00:30:57;;;;;;;8.10;4.35;;;;;;;;;;5157584;28;20045;-65
2023/12/07 00:33:28;;;;;;;7.18;3.95;;;;;;;;;;5185597;28;20046;-64
2023/12/07 00:35:59;;;;;;;6.63;4.05;;;;;;;;;;5169369;28;20046;-63
2023/12/07 00:38:32;;;;;;;8.68;4.28;;;;;;;;;;5186434;28;20026;-63
2023/12/07 00:41:03;;;;;;;;;;;;;;;;;;5185630;28;20044;-64
2023/12/07 00:43:34;;;;;;;8.30;4.30;;;;;;;;;;5188998;28;19917;-63
2023/12/07 00:46:07;;;;;;;7.57;4.50;;;;;;;;;;5168822;28;20037;-64
2023/12/07 00:48:39;;;;;;;7.13;4.20;;;;;;;;;;5172188;28;20033;-64
2023/12/07 00:51:10;;;;;;;8.18;4.43;;;;;;;;;;5171598;28;20049;-66
2023/12/07 00:53:41;;;;;;;9.77;4.63;;;;;;;;;;5169586;28;20167;-67
2023/12/07 00:56:13;;;;;;;8.27;4.43;;;;;;;;;;5151255;28;20054;-68
2023/12/07 00:58:44;;;;;;;8.32;4.13;;;;;;;;;;5154219;28;20279;-66
2023/12/07 01:01:15;;;;;;;7.53;4.57;;;;;;;;;;5179907;28;20073;-68
2023/12/07 01:03:46;;;;;;;7.65;4.15;;;;;;;;;;5179785;28;20034;-69
2023/12/07 01:06:17;;;;;;;6.63;4.10;;;;;;;;;;5168594;28;20109;-69
2023/12/07 01:08:48;;;;;;;7.40;4.80;;;;;;;;;;5168805;28;20053;-68
2023/12/07 01:11:19;;;;;;;9.35;4.13;;;;;;;;;;5169926;28;20472;-68
2023/12/07 01:13:50;;;;;;;8.07;4.38;;;;;;;;;;5168415;28;20152;-67
2023/12/07 01:16:21;;;;;;;6.60;4.15;;;;;;;;;;5174451;28;20472;-68
2023/12/07 01:18:52;;;;;;;6.03;3.35;;;;;;;;;;5177200;28;20041;-69
2023/12/07 01:21:24;;;;;;;8.35;4.28;;;;;;;;;;5167025;28;20554;-69
2023/12/07 01:23:55;;;;;;;7.45;4.35;;;;;;;;;;5168060;28;20128;-66
2023/12/07 01:26:26;;;;;;;7.38;4.25;;;;;;;;;;5167939;28;20030;-67
2023/12/07 01:28:57;;;;;;;8.57;4.00;;;;;;;;;;5168565;28;20559;-69
2023/12/07 01:31:28;;;;;;;7.45;4.03;;;;;;;;;;5167020;28;20084;-68
2023/12/07 01:33:59;;;;;;;9.10;4.00;;;;;;;;;;5175578;28;20050;-68
2023/12/07 01:36:31;;;;;;;8.05;4.00;;;;;;;;;;5167989;28;20107;-68
2023/12/07 01:39:03;;;;;;;9.35;4.68;;;;;;;;;;5167839;28;20118;-68
2023/12/07 01:41:34;;;;;;;8.10;4.70;;;;;;;;;;5151672;28;20037;-68
2023/12/07 01:44:05;;;;;;;7.22;4.63;;;;;;;;;;5151288;28;20045;-71
2023/12/07 01:46:37;;;;;;;8.55;4.70;;;;;;;;;;5168096;28;20369;-70
2023/12/07 01:49:08;;;;;;;6.85;4.32;;;;;;;;;;5168051;28;20037;-71
2023/12/07 01:51:39;;;;;;;9.75;4.90;;;;;;;;;;5167973;28;20095;-71
2023/12/07 01:54:11;;;;;;;7.05;4.70;;;;;;;;;;5167722;28;20046;-70
2023/12/07 01:56:42;;;;;;;9.52;4.68;;;;;;;;;;5167488;28;20136;-68
2023/12/07 01:59:14;;;;;;;7.32;4.32;;;;;;;;;;5167982;28;20413;-67
2023/12/07 02:01:45;;;;;;;7.90;4.72;;;;;;;;;;5167252;28;20127;-70
2023/12/07 02:04:17;;;;;;;8.82;4.43;;;;;;;;;;5167849;28;20042;-68
2023/12/07 02:06:48;;;;;;;9.10;4.25;;;;;;;;;;5167804;28;20546;-68
2023/12/07 02:09:19;;;;;;;6.05;4.20;;;;;;;;;;5172884;28;20054;-69
2023/12/07 02:11:50;;;;;;;9.07;4.90;;;;;;;;;;5167864;28;20113;-67
2023/12/07 02:14:21;;;;;;;8.93;4.50;;;;;;;;;;5167872;28;20468;-67
2023/12/07 02:17:01;;;;;;;7.80;4.55;;;;;;;;;;5160719;28;20493;-68
2023/12/07 02:19:47;;;;;;;9.40;4.97;;;;;;;;;;5178139;28;20483;-68
2023/12/07 02:22:22;;;;;;;10.15;4.40;;;;;;;;;;5167050;28;20052;-67
2023/12/07 02:25:06;;;;;;;12.80;5.05;;;;;;;;;;5166449;28;20045;-68
2023/12/07 02:27:39;;;;;;;7.50;4.88;;;;;;;;;;5166449;28;20474;-69
2023/12/07 02:30:11;;;;;;;9.68;5.10;;;;;;;;;;5166679;28;20046;-68
2023/12/07 02:32:44;;;;;;;6.95;4.53;;;;;;;;;;5173600;28;20030;-67
2023/12/07 02:35:15;;;;;;;8.55;5.00;;;;;;;;;;5174201;28;20452;-67
2023/12/07 02:37:48;;;;;;;6.68;4.30;;;;;;;;;;5166990;28;20113;-66
2023/12/07 02:40:22;;;;;;;9.68;5.07;;;;;;;;;;5166854;28;20076;-66
2023/12/07 02:42:57;;;;;;;7.72;4.50;;;;;;;;;;5166508;28;20048;-65
2023/12/07 02:45:28;;;;;;;8.13;5.25;;;;;;;;;;5166662;28;20053;-68
2023/12/07 02:48:00;;;;;;;12.20;5.37;;;;;;;;;;5167255;28;20046;-68
2023/12/07 02:50:31;;;;;;;8.90;5.00;;;;;;;;;;5166089;28;20275;-68
2023/12/07 02:53:02;;;;;;;6.78;4.15;;;;;;;;;;5167053;28;20081;-67
2023/12/07 02:55:33;;;;;;;9.75;4.63;;;;;;;;;;5167133;28;20041;-67
2023/12/07 02:58:06;;;;;;;9.02;4.78;;;;;;;;;;5181148;28;20342;-66
2023/12/07 03:00:37;;;;;;;7.88;4.50;;;;;;;;;;5150321;28;20106;-66
2023/12/07 03:03:08;;;;;;;9.05;5.13;;;;;;;;;;5166575;28;20546;-64
2023/12/07 03:05:39;;;;;;;8.63;4.65;;;;;;;;;;5166009;28;20034;-66
2023/12/07 03:08:11;;;;;;;8.93;5.00;;;;;;;;;;5170329;28;20562;-66
2023/12/07 03:10:42;;;;;;;8.90;4.77;;;;;;;;;;5166058;28;20053;-67
2023/12/07 03:13:13;;;;;;;8.60;5.47;;;;;;;;;;5166517;28;20433;-65
2023/12/07 03:15:44;;;;;;;9.48;4.85;;;;;;;;;;5165976;28;20125;-67
2023/12/07 03:18:16;;;;;;;9.20;4.97;;;;;;;;;;5159038;28;20038;-67
2023/12/07 03:20:47;;;;;;;9.05;5.35;;;;;;;;;;5165201;28;20500;-68
2023/12/07 03:23:18;;;;;;;9.95;5.20;;;;;;;;;;5165419;28;20511;-68
2023/12/07 03:25:49;;;;;;;7.57;5.07;;;;;;;;;;5167406;28;20497;-68
2023/12/07 03:28:20;;;;;;;7.28;4.72;;;;;;;;;;5169626;28;20074;-67
2023/12/07 03:30:51;;;;;;;8.20;5.15;;;;;;;;;;5155070;28;20042;-68
2023/12/07 03:33:22;;;;;;;9.18;5.50;;;;;;;;;;5167046;28;20050;-69
2023/12/07 03:35:54;;;;;;;8.85;5.28;;;;;;;;;;5165869;28;20046;-69
2023/12/07 03:38:25;;;;;;;8.70;5.07;;;;;;;;;;5172883;28;20041;-67
2023/12/07 03:40:56;;;;;;;8.82;5.40;;;;;;;;;;5174179;28;20077;-67
2023/12/07 03:43:27;;;;;;;8.80;5.60;;;;;;;;;;5180564;28;20380;-67
2023/12/07 03:45:58;;;;;;;8.02;4.75;;;;;;;;;;5173425;28;20400;-66
2023/12/07 03:48:29;;;;;;;8.82;4.85;;;;;;;;;;5173416;28;20488;-67
2023/12/07 03:51:01;;;;;;;7.03;5.07;;;;;;;;;;5165438;28;20476;-67
2023/12/07 03:53:32;;;;;;;7.85;5.40;;;;;;;;;;5172328;28;20042;-65
2023/12/07 03:56:04;;;;;;;9.13;5.53;;;;;;;;;;5172753;28;20527;-66
2023/12/07 03:58:35;;;;;;;13.07;6.03;;;;;;;;;;5168674;28;20034;-66
2023/12/07 04:01:06;;;;;;;8.60;4.90;;;;;;;;;;5178296;28;20452;-66
2023/12/07 04:03:38;;;;;;;8.93;5.10;;;;;;;;;;5185831;28;20038;-69
2023/12/07 04:06:09;;;;;;;7.38;4.85;;;;;;;;;;5170768;28;20053;-68
2023/12/07 04:08:40;;;;;;;7.93;4.85;;;;;;;;;;5156418;28;20365;-68
2023/12/07 04:11:12;;;;;;;9.15;5.07;;;;;;;;;;5172322;28;20046;-68
2023/12/07 04:13:43;;;;;;;9.57;5.57;;;;;;;;;;5172741;28;20054;-68
2023/12/07 04:16:15;;;;;;;10.45;5.35;;;;;;;;;;5167930;28;20595;-67
2023/12/07 04:18:46;;;;;;;8.85;4.93;;;;;;;;;;5172436;28;20120;-68
2023/12/07 04:21:17;;;;;;;8.60;5.20;;;;;;;;;;5171705;28;20040;-68
2023/12/07 04:23:48;;;;;;;9.40;5.75;;;;;;;;;;5172170;28;20087;-68
2023/12/07 04:26:19;;;;;;;7.63;5.13;;;;;;;;;;5171795;28;20049;-68
2023/12/07 04:28:50;;;;;;;9.98;5.30;;;;;;;;;;5156018;28;20052;-68
2023/12/07 04:31:22;;;;;;;10.15;5.35;;;;;;;;;;5170557;28;20081;-69
2023/12/07 04:33:53;;;;;;;9.20;5.80;;;;;;;;;;5155508;28;20046;-68
2023/12/07 04:36:24;;;;;;;7.57;5.18;;;;;;;;;;5171971;28;20038;-67
2023/12/07 04:38:55;;;;;;;11.18;5.63;;;;;;;;;;5172339;28;20117;-67
2023/12/07 04:41:26;;;;;;;9.07;5.45;;;;;;;;;;5171568;28;20476;-68
2023/12/07 04:43:57;;;;;;;8.80;5.40;;;;;;;;;;5171764;28;20038;-66
2023/12/07 04:46:28;;;;;;;8.88;5.53;;;;;;;;;;5171807;28;20049;-67
2023/12/07 04:49:00;;;;;;;11.13;5.97;;;;;;;;;;5172575;28;20419;-67
2023/12/07 04:51:31;;;;;;;8.95;5.72;;;;;;;;;;5173192;28;20491;-67
2023/12/07 04:54:02;;;;;;;10.43;6.28;;;;;;;;;;5153628;28;20046;-69
2023/12/07 04:56:33;;;;;;;9.17;5.77;;;;;;;;;;5172823;28;20038;-67
2023/12/07 04:59:04;;;;;;;8.88;5.30;;;;;;;;;;5169033;28;20412;-68
2023/12/07 05:01:36;;;;;;;11.00;5.70;;;;;;;;;;5154145;28;20121;-69
2023/12/07 05:04:07;;;;;;;7.90;5.28;;;;;;;;;;5168471;28;20033;-68
2023/12/07 05:06:38;;;;;;;9.30;5.50;;;;;;;;;;5152012;28;20527;-68
2023/12/07 05:09:10;;;;;;;10.30;6.32;;;;;;;;;;5174563;28;20088;-67
2023/12/07 05:11:41;;;;;;;8.50;5.28;;;;;;;;;;5159864;28;20038;-69
2023/12/07 05:14:13;;;;;;;8.52;5.43;;;;;;;;;;5169619;28;20785;-68
2023/12/07 05:16:45;;;;;;;13.00;5.75;;;;;;;;;;5168116;28;20061;-69
2023/12/07 05:19:16;;;;;;;8.00;5.38;;;;;;;;;;5179011;28;20030;-71
2023/12/07 05:21:47;;;;;;;8.00;5.13;;;;;;;;;;5172048;28;20034;-69
2023/12/07 05:24:18;;;;;;;13.35;5.13;;;;;;;;;;5179090;28;20508;-69
2023/12/07 05:26:50;;;;;;;9.90;5.70;;;;;;;;;;5171367;28;20507;-69
2023/12/07 05:29:21;;;;;;;10.48;5.80;;;;;;;;;;5172279;28;20033;-67
2023/12/07 05:31:52;;;;;;;9.85;5.88;;;;;;;;;;5172240;28;20046;-67
2023/12/07 05:34:23;;;;;;;9.60;6.10;;;;;;;;;;5159911;28;20041;-67
2023/12/07 05:36:54;;;;;;;8.73;5.45;;;;;;;;;;5167786;28;20081;-67
2023/12/07 05:39:25;;;;;;;7.85;5.68;;;;;;;;;;5171805;28;20069;-70
2023/12/07 05:41:56;;;;;;;10.52;6.28;;;;;;;;;;5155932;28;20046;-69
2023/12/07 05:44:28;;;;;;;10.18;6.07;;;;;;;;;;5170120;28;20125;-67
2023/12/07 05:46:59;;;;;;;10.82;6.20;;;;;;;;;;5165628;28;20056;-66
2023/12/07 05:49:30;;;;;;;8.73;5.57;;;;;;;;;;5168972;28;20084;-65
2023/12/07 05:52:02;;;;;;;11.55;5.90;;;;;;;;;;5165931;28;20081;-68
2023/12/07 05:54:34;;;;;;;8.85;5.60;;;;;;;;;;5177527;28;20326;-69
2023/12/07 05:57:05;;;;;;;10.23;6.05;;;;;;;;;;5167807;28;20117;-68
2023/12/07 05:59:41;;;;;;;9.93;5.57;;;;;;;;;;5170424;28;20045;-67
2023/12/07 06:02:12;;;;;;;10.02;6.57;;;;;;;;;;5168061;28;20046;-68
2023/12/07 06:04:43;;;;;;;8.23;5.68;;;;;;;;;;5159125;28;20034;-69
2023/12/07 06:07:14;;;;;;;11.70;6.00;;;;;;;;;;5176443;28;20040;-68
2023/12/07 06:09:46;;;;;;;8.18;5.65;;;;;;;;;;5167622;28;20038;-69
2023/12/07 06:12:17;;;;;;;8.90;5.82;;;;;;;;;;5167202;28;20034;-67
2023/12/07 06:14:51;;;;;;;10.30;5.72;;;;;;;;;;5167643;28;20049;-67
2023/12/07 06:17:22;;;;;;;7.95;5.47;;;;;;;;;;5167426;28;20045;-67
2023/12/07 06:19:53;;;;;;;9.27;5.57;;;;;;;;;;5167465;28;20049;-68
2023/12/07 06:22:24;;;;;;;10.88;5.43;;;;;;;;;;5167208;28;20068;-67
2023/12/07 06:24:55;;;;;;;11.00;5.97;;;;;;;;;;5166829;28;20053;-67
2023/12/07 06:27:27;;;;;;;10.43;5.72;;;;;;;;;;5163033;28;20500;-67
2023/12/07 06:29:58;;;;;;;11.82;5.88;;;;;;;;;;5167087;28;20049;-68
2023/12/07 06:32:29;;;;;;;7.80;5.10;;;;;;;;;;5172726;28;20069;-67
2023/12/07 06:35:00;;;;;;;11.10;5.80;;;;;;;;;;5169860;28;20122;-72
2023/12/07 06:37:31;;;;;;;12.17;5.63;;;;;;;;;;5167145;28;20500;-70
2023/12/07 06:40:04;;;;;;;10.02;6.22;;;;;;;;;;5166948;28;20121;-71
2023/12/07 06:42:36;;;;;;;11.15;5.90;;;;;;;;;;5174045;28;20156;-70
2023/12/07 06:45:10;;;;;;;8.67;5.50;;;;;;;;;;5166722;28;20038;-71
2023/12/07 06:47:44;;;;;;;11.52;6.22;;;;;;;;;;5174912;28;20355;-70
2023/12/07 06:50:15;;;;;;;9.45;5.38;;;;;;;;;;5167102;28;20116;-70
2023/12/07 06:52:47;;;;;;;11.50;6.18;;;;;;;;;;5173647;28;20755;-71
2023/12/07 06:55:19;;;;;;;7.75;5.15;;;;;;;;;;5166747;28;20125;-68
2023/12/07 06:57:50;;;;;;;;;;;;;;;;;;5167066;28;20181;-68
2023/12/07 07:00:21;;;;;;;9.35;5.57;;;;;;;;;;5167004;28;19933;-68
2023/12/07 07:02:53;;;;;;;11.67;5.93;;;;;;;;;;5161278;28;20418;-67
2023/12/07 07:05:24;;;;;;;10.80;6.07;;;;;;;;;;5182051;28;20057;-69
2023/12/07 07:07:55;;;;;;;9.98;5.47;;;;;;;;;;5181993;28;20045;-69
2023/12/07 07:10:26;;;;;;;10.68;6.10;;;;;;;;;;5177378;28;20184;-69
2023/12/07 07:13:02;;;;;;;9.93;5.30;;;;;;;;;;5177614;28;20365;-69
2023/12/07 07:15:34;;;;;;;9.35;5.53;;;;;;;;;;5169082;28;20042;-69
2023/12/07 07:18:05;;;;;;;11.00;5.77;;;;;;;;;;5166278;28;20087;-68
2023/12/07 07:20:36;;;;;;;11.63;6.38;;;;;;;;;;5165717;28;20310;-69
2023/12/07 07:23:08;;;;;;;14.32;6.60;;;;;;;;;;5166192;28;20124;-68
2023/12/07 07:25:39;;;;;;;12.98;6.55;;;;;;;;;;5168745;28;20053;-68
2023/12/07 07:28:10;;;;;;;12.27;6.03;;;;;;;;;;5172246;28;20049;-68
2023/12/07 07:30:41;;;;;;;9.10;5.47;;;;;;;;;;5170509;28;20045;-66
2023/12/07 07:33:13;;;;;;;8.35;5.85;;;;;;;;;;5154300;28;20096;-67
2023/12/07 07:35:44;;;;;;;10.10;5.68;;;;;;;;;;5176426;28;20495;-66
2023/12/07 07:38:15;;;;;;;9.73;5.75;;;;;;;;;;5178849;28;20107;-66
2023/12/07 07:40:47;;;;;;;11.15;6.18;;;;;;;;;;5166412;28;20049;-68
2023/12/07 07:43:18;;;;;;;10.20;6.00;;;;;;;;;;5166108;28;20034;-68
2023/12/07 07:45:49;;;;;;;11.35;5.72;;;;;;;;;;5166105;28;20046;-67
2023/12/07 07:48:21;;;;;;;12.88;5.90;;;;;;;;;;5165811;28;20100;-63
2023/12/07 07:50:52;;;;;;;9.35;5.20;;;;;;;;;;5165706;28;20041;-67
2023/12/07 07:53:23;;;;;;;9.63;5.65;;;;;;;;;;5166360;28;20523;-69
2023/12/07 07:55:54;;;;;;;8.40;5.63;;;;;;;;;;5165667;28;20073;-69
2023/12/07 07:58:25;;;;;;;10.50;5.90;;;;;;;;;;5165066;28;20034;-68
2023/12/07 08:00:57;;;;;;;9.65;6.05;;;;;;;;;;5154487;28;20042;-71
2023/12/07 08:03:28;;;;;;;8.57;5.22;;;;;;;;;;5165996;28;20099;-70
2023/12/07 08:05:59;;;;;;;10.05;6.03;;;;;;;;;;5151591;28;20041;-71
2023/12/07 08:08:30;;;;;;;8.77;5.45;;;;;;;;;;5166301;28;20455;-69
2023/12/07 08:11:01;;;;;;;10.60;6.05;;;;;;;;;;5165581;28;20042;-69
2023/12/07 08:13:32;;;;;;;10.18;6.10;;;;;;;;;;5165485;28;20132;-70
2023/12/07 08:16:09;;;;;;;9.65;5.60;;;;;;;;;;5165533;28;20046;-69
2023/12/07 08:18:40;;;;;;;10.38;5.63;;;;;;;;;;5165234;28;20057;-70
2023/12/07 08:21:19;;;;;;;12.00;6.38;;;;;;;;;;5155861;28;20385;-68
2023/12/07 08:23:51;;;;;;;9.90;5.95;;;;;;;;;;5179868;28;20465;-68
2023/12/07 08:26:22;;;;;;;10.63;5.85;;;;;;;;;;5166837;28;20448;-69
2023/12/07 08:28:53;;;;;;;11.00;6.63;;;;;;;;;;5168766;28;20120;-69
2023/12/07 08:31:25;;;;;;;16.45;6.10;;;;;;;;;;5169190;28;20046;-69
2023/12/07 08:33:56;;;;;;;16.88;6.78;;;;;;;;;;5164575;28;20096;-69
2023/12/07 08:36:27;;;;;;;13.57;6.27;;;;;;;;;;5168015;28;20050;-70
2023/12/07 08:38:58;;;;;;;12.40;6.72;;;;;;;;;;5179683;28;20279;-72
2023/12/07 08:41:29;;;;;;;15.07;6.55;;;;;;;;;;5168989;28;20416;-71
2023/12/07 08:44:01;;;;;;;12.38;6.63;;;;;;;;;;5168990;28;20121;-70
2023/12/07 08:46:33;;;;;;;17.73;7.13;;;;;;;;;;5168630;28;20046;-68
2023/12/07 08:49:04;;;;;;;12.98;6.75;;;;;;;;;;5176525;28;20468;-68
2023/12/07 08:51:36;;;;;;;14.30;7.07;;;;;;;;;;5153630;28;20129;-64
2023/12/07 08:54:07;;;;;;;11.40;5.95;;;;;;;;;;5168277;28;20476;-62
2023/12/07 08:56:38;;;;;;;9.82;5.80;;;;;;;;;;5156292;28;20088;-64
2023/12/07 08:59:09;;;;;;;11.23;6.68;;;;;;;;;;5168336;28;20065;-64
2023/12/07 09:01:41;;;;;;;9.68;5.85;;;;;;;;;;5168838;28;20532;-64
2023/12/07 09:04:12;;;;;;;11.20;6.43;;;;;;;;;;5168568;28;20038;-65
2023/12/07 09:06:43;;;;;;;10.55;5.82;;;;;;;;;;5166865;28;20060;-59
2023/12/07 09:09:14;;;;;;;12.88;6.72;;;;;;;;;;5177561;28;20724;-65
2023/12/07 09:11:45;;;;;;;13.27;6.50;;;;;;;;;;5184895;28;20488;-64
2023/12/07 09:14:16;;;;;;;12.85;6.70;;;;;;;;;;5168550;28;20606;-65
2023/12/07 09:16:48;;;;;;;11.20;6.13;;;;;;;;;;5168172;28;20048;-62
2023/12/07 09:19:19;;;;;;;11.70;6.35;;;;;;;;;;5167882;28;20069;-62
2023/12/07 09:21:50;;;;;;;11.00;6.75;;;;;;;;;;5168037;28;20038;-63
2023/12/07 09:24:21;;;;;;;13.95;6.53;;;;;;;;;;5168333;28;20095;-62
2023/12/07 09:26:52;;;;;;;13.85;7.30;;;;;;;;;;5168143;28;20453;-62
2023/12/07 09:29:38;;;;;;;12.25;6.97;;;;;;;;;;5169065;28;20038;-62
2023/12/07 09:32:11;;;;;;;11.70;6.95;;;;;;;;;;5168257;28;20050;-62
2023/12/07 09:34:42;;;;;;;16.02;8.32;;;;;;;;;;5168251;28;20040;-63
2023/12/07 09:37:13;;;;;;;14.02;7.18;;;;;;;;;;5167828;28;20045;-64
2023/12/07 09:39:45;;;;;;;16.48;8.75;;;;;;;;;;5172393;28;20037;-62
2023/12/07 09:42:16;;;;;;;18.52;8.63;;;;;;;;;;5162562;28;20042;-62
2023/12/07 09:44:47;;;;;;;17.73;9.25;;;;;;;;;;5167911;28;20125;-63
2023/12/07 09:47:18;;;;;;;17.70;9.05;;;;;;;;;;5167386;28;20049;-62
2023/12/07 09:49:50;;;;;;;18.80;9.83;;;;;;;;;;5167682;28;20076;-62
2023/12/07 09:52:22;;;;;;;22.57;10.03;;;;;;;;;;5156105;28;20756;-65
2023/12/07 09:54:55;;;;;;;18.73;10.10;;;;;;;;;;5167087;28;20037;-67
2023/12/07 09:57:26;;;;;;;18.92;10.77;;;;;;;;;;5167305;28;20149;-66
2023/12/07 09:59:57;;;;;;;20.88;10.63;;;;;;;;;;5167886;28;20136;-65
2023/12/07 10:02:29;;;;;;;18.45;11.30;;;;;;;;;;5167876;28;20052;-63
2023/12/07 10:05:07;;;;;;;22.73;11.57;;;;;;;;;;5167704;28;20069;-69
2023/12/07 10:07:40;;;;;;;21.38;11.32;;;;;;;;;;5166683;28;20056;-65
2023/12/07 10:10:11;;;;;;;21.90;11.85;;;;;;;;;;5166793;28;20045;-66
2023/12/07 10:12:48;;;;;;;23.43;11.47;;;;;;;;;;5167565;28;20037;-66
2023/12/07 10:15:20;;;;;;;17.40;10.60;;;;;;;;;;5167103;28;20050;-64
2023/12/07 10:17:52;;;;;;;24.80;13.23;;;;;;;;;;5167578;28;20049;-64
2023/12/07 10:20:24;;;;;;;19.30;11.63;;;;;;;;;;5167343;28;20392;-65
2023/12/07 10:23:05;;;;;;;18.17;11.18;;;;;;;;;;5176473;28;20387;-64
2023/12/07 10:25:38;;;;;;;23.40;12.02;;;;;;;;;;5167064;28;20069;-64
2023/12/07 10:28:11;;;;;;;24.85;12.60;;;;;;;;;;5150844;28;20388;-63
2023/12/07 10:30:44;;;;;;;26.38;12.35;;;;;;;;;;5166947;28;20049;-63
2023/12/07 10:33:15;;;;;;;22.88;13.20;;;;;;;;;;5167258;28;20555;-64
2023/12/07 10:35:50;;;;;;;19.57;12.07;;;;;;;;;;5165453;28;20084;-65
2023/12/07 10:38:21;;;;;;;22.23;12.45;;;;;;;;;;5167084;28;20038;-63
2023/12/07 10:41:02;;;;;;;22.10;12.73;;;;;;;;;;5165118;28;20116;-62
2023/12/07 10:43:37;;;;;;;22.05;13.50;;;;;;;;;;5163702;28;20041;-63
2023/12/07 10:46:09;;;;;;;24.30;13.25;;;;;;;;;;5158457;28;20050;-66
2023/12/07 10:48:41;;;;;;;17.58;11.60;;;;;;;;;;5168071;28;20044;-65
2023/12/07 10:51:14;;;;;;;24.20;11.65;;;;;;;;;;5155651;28;20072;-67
2023/12/07 10:53:46;;;;;;;19.80;11.68;;;;;;;;;;5165326;28;20041;-69
2023/12/07 10:56:26;;;;;;;23.88;13.43;;;;;;;;;;5162988;28;20030;-67
2023/12/07 10:58:57;;;;;;;25.13;13.45;;;;;;;;;;5166529;28;20038;-70
2023/12/07 11:01:29;;;;;;;24.90;12.60;;;;;;;;;;5158439;28;20052;-67
2023/12/07 11:04:02;;;;;;;21.65;11.88;;;;;;;;;;5165173;28;20544;-74
2023/12/07 11:06:36;;;;;;;20.48;11.82;;;;;;;;;;5165643;28;20050;-63
2023/12/07 11:09:14;;;;;;;24.02;12.50;;;;;;;;;;5165794;28;20038;-66
2023/12/07 11:11:49;;;;;;;26.75;13.60;;;;;;;;;;5167033;28;20464;-65
2023/12/07 11:14:20;;;;;;;21.13;12.25;;;;;;;;;;5169297;28;20100;-67
2023/12/07 11:16:53;;;;;;;21.60;12.48;;;;;;;;;;5181816;28;20125;-64
2023/12/07 11:19:32;;;;;;;24.55;12.52;;;;;;;;;;5166558;28;20129;-61
2023/12/07 11:22:04;;;;;;;23.83;13.85;;;;;;;;;;5168800;28;20488;-61
2023/12/07 11:24:36;;;;;;;26.15;14.63;;;;;;;;;;5159310;28;20038;-62
2023/12/07 11:27:07;;;;;;;21.63;13.68;;;;;;;;;;5164098;28;20081;-61
2023/12/07 11:29:38;;;;;;;23.88;13.98;;;;;;;;;;5156751;28;20045;-67
2023/12/07 11:32:11;;;;;;;23.20;12.88;;;;;;;;;;5166079;28;20060;-65
2023/12/07 11:34:43;;;;;;;24.17;13.05;;;;;;;;;;5166107;28;20037;-63
2023/12/07 11:37:17;;;;;;;21.58;13.35;;;;;;;;;;5165999;28;20469;-63
2023/12/07 11:39:49;;;;;;;23.60;13.68;;;;;;;;;;5165929;28;20041;-65
2023/12/07 11:42:20;;;;;;;27.05;13.90;;;;;;;;;;5165907;28;20038;-64
2023/12/07 11:44:52;;;;;;;21.73;13.73;;;;;;;;;;5165944;28;20041;-62
2023/12/07 11:47:23;;;;;;;26.92;13.45;;;;;;;;;;5165893;28;20099;-62
2023/12/07 11:49:54;;;;;;;20.92;12.30;;;;;;;;;;5165626;28;20046;-61
2023/12/07 11:52:26;;;;;;;23.95;13.95;;;;;;;;;;5166301;28;20782;-63
2023/12/07 11:54:57;;;;;;;24.15;13.48;;;;;;;;;;5166819;28;20053;-62
2023/12/07 16:42:49;;;;;;;36.90;20.67;;;;;;;;;;5261290;27;20405;-60
2023/12/07 16:45:21;;;;;;;36.65;21.35;;;;;;;;;;5252614;28;20466;-58
2023/12/07 16:47:53;;;;;;;36.45;22.27;;;;;;;;;;5258397;28;20074;-59
2023/12/07 16:50:24;;;;;;;34.53;21.13;;;;;;;;;;5259236;28;20032;-59
2023/12/07 16:52:56;;;;;;;36.50;22.13;;;;;;;;;;5243359;28;20075;-61
2023/12/07 16:55:28;;;;;;;43.15;24.80;;;;;;;;;;5242567;28;20070;-62
2023/12/07 16:57:59;;;;;;;37.97;22.67;;;;;;;;;;5248334;28;20454;-60
2023/12/07 17:00:32;;;;;;;40.50;24.23;;;;;;;;;;5217390;28;20136;-59
2023/12/07 17:03:05;;;;;;;44.85;24.27;;;;;;;;;;5265579;28;20083;-59
2023/12/07 17:05:38;;;;;;;42.90;23.77;;;;;;;;;;5217761;28;20060;-59
2023/12/07 17:08:09;;;;;;;41.45;24.48;;;;;;;;;;5267306;28;20033;-61
2023/12/07 17:10:40;;;;;;;39.90;24.00;;;;;;;;;;5217976;28;20044;-60
2023/12/07 17:13:12;;;;;;;49.95;24.15;;;;;;;;;;5257340;28;20037;-60
2023/12/07 17:15:43;;;;;;;49.30;26.25;;;;;;;;;;5274620;28;20367;-61
2023/12/07 17:18:14;;;;;;;47.03;26.07;;;;;;;;;;5241864;28;20051;-58
2023/12/07 17:20:45;;;;;;;47.25;26.02;;;;;;;;;;5235344;28;20059;-61
2023/12/07 17:23:16;;;;;;;50.28;26.75;;;;;;;;;;5243323;28;20040;-59
2023/12/07 17:25:48;;;;;;;48.53;27.77;;;;;;;;;;5244653;28;20085;-57
2023/12/07 17:28:19;;;;;;;53.47;28.88;;;;;;;;;;5232822;28;20593;-59
2023/12/07 17:30:50;;;;;;;57.90;30.52;;;;;;;;;;5277439;28;20044;-60
2023/12/07 17:33:21;;;;;;;58.20;31.02;;;;;;;;;;5231227;28;20048;-61
2023/12/07 17:35:52;;;;;;;50.67;29.85;;;;;;;;;;5254136;28;20036;-59
2023/12/07 17:38:23;;;;;;;56.40;29.77;;;;;;;;;;5241994;28;20047;-61
2023/12/07 17:40:54;;;;;;;60.78;30.02;;;;;;;;;;5240284;28;20040;-58
2023/12/07 17:43:25;;;;;;;57.33;31.85;;;;;;;;;;5241012;28;20072;-60
2023/12/07 17:45:57;;;;;;;52.78;30.20;;;;;;;;;;5223625;28;20037;-61
2023/12/07 17:48:28;;;;;;;59.70;31.30;;;;;;;;;;5240864;28;20045;-63
2023/12/07 17:50:59;;;;;;;54.42;29.27;;;;;;;;;;5240656;28;20051;-61
2023/12/07 17:53:30;;;;;;;54.80;30.73;;;;;;;;;;5228378;28;20076;-60
2023/12/07 17:56:03;;;;;;;57.50;30.67;;;;;;;;;;5214397;28;20036;-60
2023/12/07 17:58:34;;;;;;;53.78;29.25;;;;;;;;;;5210286;28;20053;-59
2023/12/07 18:01:05;;;;;;;56.13;31.10;;;;;;;;;;5244474;28;20048;-58
2023/12/07 18:03:36;;;;;;;50.40;29.10;;;;;;;;;;5228603;28;20036;-62
2023/12/07 18:06:08;;;;;;;55.28;29.58;;;;;;;;;;5242166;28;20041;-59
2023/12/07 18:08:39;;;;;;;51.40;28.25;;;;;;;;;;5259649;28;20423;-58
2023/12/07 18:11:20;;;;;;;50.22;27.45;;;;;;;;;;5259816;28;20037;-61
2023/12/07 18:13:52;;;;;;;54.28;28.58;;;;;;;;;;5225225;28;20055;-58
2023/12/07 18:16:24;;;;;;;55.88;28.95;;;;;;;;;;5208851;28;20071;-60
2023/12/07 18:18:55;;;;;;;45.10;26.63;;;;;;;;;;5226481;28;20507;-61
2023/12/07 18:21:26;;;;;;;49.17;28.17;;;;;;;;;;5241089;28;20564;-62
2023/12/07 18:23:57;;;;;;;45.53;26.05;;;;;;;;;;5231274;28;20037;-58
2023/12/07 18:26:30;;;;;;;49.25;28.38;;;;;;;;;;5224852;28;20124;-60
2023/12/07 18:29:01;;;;;;;55.88;29.30;;;;;;;;;;5203543;28;20093;-60
2023/12/07 18:31:33;;;;;;;48.03;27.13;;;;;;;;;;5249939;28;20099;-63
2023/12/07 18:34:04;;;;;;;53.67;26.27;;;;;;;;;;5233383;28;21378;-63
2023/12/07 18:36:35;;;;;;;54.75;28.60;;;;;;;;;;5236048;28;20068;-63
2023/12/07 18:39:06;;;;;;;53.75;27.73;;;;;;;;;;5208643;28;20049;-64
2023/12/07 18:41:37;;;;;;;49.33;27.67;;;;;;;;;;5252191;28;20112;-65
2023/12/07 18:44:08;;;;;;;56.05;29.73;;;;;;;;;;5259079;28;20452;-65
2023/12/07 18:46:40;;;;;;;56.17;29.85;;;;;;;;;;5226545;28;20043;-64
2023/12/07 18:49:13;;;;;;;53.42;29.02;;;;;;;;;;5245681;28;20410;-59
2023/12/07 18:51:44;;;;;;;53.53;27.77;;;;;;;;;;5219495;28;20044;-60
2023/12/07 18:54:16;;;;;;;57.05;28.00;;;;;;;;;;5230906;28;20051;-60
2023/12/07 18:56:47;;;;;;;57.25;30.02;;;;;;;;;;5252798;28;20037;-61
2023/12/07 18:59:18;;;;;;;65.00;31.30;;;;;;;;;;5235796;28;20053;-64
2023/12/07 19:01:49;;;;;;;60.60;31.52;;;;;;;;;;5250743;28;20608;-65
2023/12/07 19:04:20;;;;;;;58.15;30.50;;;;;;;;;;5208276;28;20498;-63
2023/12/07 19:06:51;;;;;;;57.55;32.40;;;;;;;;;;5215086;28;20048;-65
2023/12/07 19:09:22;;;;;;;62.05;30.92;;;;;;;;;;5237677;28;20414;-63
2023/12/07 19:11:53;;;;;;;58.10;31.00;;;;;;;;;;5216307;28;20041;-61
2023/12/07 19:14:25;;;;;;;59.88;31.05;;;;;;;;;;5188245;28;20052;-62
2023/12/07 19:16:56;;;;;;;57.67;31.52;;;;;;;;;;5255960;28;20387;-63
2023/12/07 19:19:27;;;;;;;57.33;30.30;;;;;;;;;;5243783;28;20203;-62
2023/12/07 19:21:58;;;;;;;53.22;27.75;;;;;;;;;;5229053;28;20467;-61
2023/12/07 19:24:30;;;;;;;53.58;27.50;;;;;;;;;;5224557;28;20041;-63
2023/12/07 19:27:01;;;;;;;51.60;28.58;;;;;;;;;;5227819;28;20103;-63
2023/12/07 19:29:33;;;;;;;54.08;28.00;;;;;;;;;;5236860;28;20094;-63
2023/12/07 19:32:04;;;;;;;53.72;28.35;;;;;;;;;;5229024;28;20487;-63
2023/12/07 19:34:35;;;;;;;54.08;28.20;;;;;;;;;;5229080;28;20379;-63
2023/12/07 19:37:06;;;;;;;54.30;27.92;;;;;;;;;;5228463;28;20056;-63
2023/12/07 19:39:37;;;;;;;54.97;28.65;;;;;;;;;;5246581;28;20459;-63
2023/12/07 19:42:08;;;;;;;52.85;28.30;;;;;;;;;;5245342;28;20044;-64